createdAt,value
2023-05-04T00:02:21.544Z,9.97
2023-05-04T00:04:52.117Z,10.18
2023-05-04T00:07:20.376Z,10.00
2023-05-04T00:09:47.392Z,9.73
2023-05-04T00:12:14.343Z,10.28
2023-05-04T00:14:41.338Z,10.32
2023-05-04T00:17:08.963Z,9.93
2023-05-04T00:19:36.613Z,10.15
2023-05-04T00:22:03.660Z,9.95
2023-05-04T00:24:30.683Z,10.40
2023-05-04T00:26:57.624Z,10.36
2023-05-04T00:29:24.700Z,10.02
2023-05-04T00:31:51.871Z,10.01
2023-05-04T00:34:18.892Z,10.32
2023-05-04T00:36:46.920Z,10.35
2023-05-04T00:39:14.139Z,10.24
2023-05-04T00:41:41.348Z,9.88
2023-05-04T00:44:08.719Z,9.65
2023-05-04T00:46:37.764Z,9.88
2023-05-04T00:49:06.375Z,10.02
2023-05-04T00:51:34.509Z,9.54
2023-05-04T00:54:04.351Z,9.96
2023-05-04T00:56:32.751Z,9.52
2023-05-04T00:58:59.736Z,9.80
2023-05-04T01:01:26.996Z,9.75
2023-05-04T01:03:55.385Z,9.71
2023-05-04T01:07:08.712Z,9.82
2023-05-04T01:09:50.288Z,9.43
2023-05-04T01:12:26.684Z,9.46
2023-05-04T01:14:55.314Z,9.13
2023-05-04T01:17:22.573Z,9.69
2023-05-04T01:19:51.236Z,9.22
2023-05-04T01:22:18.254Z,9.26
2023-05-04T01:24:45.701Z,9.63
2023-05-04T01:27:27.129Z,9.60
2023-05-04T01:30:00.190Z,9.60
2023-05-04T01:32:28.854Z,9.48
2023-05-04T01:34:58.745Z,9.59
2023-05-04T01:37:26.556Z,9.64
2023-05-04T01:39:53.624Z,9.28
2023-05-04T01:42:20.659Z,9.61
2023-05-04T01:44:47.726Z,9.18
2023-05-04T01:47:14.774Z,9.35
2023-05-04T01:49:41.826Z,8.99
2023-05-04T01:52:09.991Z,9.39
2023-05-04T01:54:37.165Z,9.49
2023-05-04T01:57:04.267Z,8.63
2023-05-04T01:59:31.833Z,9.47
2023-05-04T02:01:58.974Z,9.08
2023-05-04T02:04:27.168Z,9.11
2023-05-04T02:06:54.122Z,8.53
2023-05-04T02:09:21.524Z,9.45
2023-05-04T02:11:48.471Z,9.47
2023-05-04T02:14:15.422Z,9.01
2023-05-04T02:16:42.369Z,9.32
2023-05-04T02:19:11.813Z,9.68
2023-05-04T02:21:40.062Z,9.68
2023-05-04T02:24:07.684Z,9.25
2023-05-04T02:26:36.317Z,9.04
2023-05-04T02:29:03.979Z,9.68
2023-05-04T02:31:30.995Z,9.16
2023-05-04T02:33:57.988Z,9.66
2023-05-04T02:36:24.923Z,9.79
2023-05-04T02:38:52.109Z,9.67
2023-05-04T02:41:19.103Z,9.53
2023-05-04T02:43:46.112Z,9.89
2023-05-04T02:46:13.248Z,9.91
2023-05-04T02:48:40.199Z,9.25
2023-05-04T02:51:07.465Z,9.64
2023-05-04T02:53:34.481Z,9.41
2023-05-04T02:56:01.540Z,9.82
2023-05-04T02:58:28.550Z,9.12
2023-05-04T03:00:56.813Z,9.50
2023-05-04T03:03:23.824Z,9.81
2023-05-04T03:05:50.778Z,9.63
2023-05-04T03:08:17.918Z,9.75
2023-05-04T03:10:44.938Z,9.76
2023-05-04T03:13:12.037Z,9.85
2023-05-04T03:15:39.534Z,9.67
2023-05-04T03:18:06.938Z,9.61
2023-05-04T03:20:34.565Z,9.87
2023-05-04T03:23:01.874Z,9.76
2023-05-04T03:25:28.932Z,10.10
2023-05-04T03:27:56.291Z,9.36
2023-05-04T03:30:24.095Z,9.81
2023-05-04T03:32:51.111Z,9.78
2023-05-04T03:35:24.275Z,10.23
2023-05-04T03:37:52.625Z,10.21
2023-05-04T03:40:23.237Z,9.74
2023-05-04T03:42:52.856Z,9.59
2023-05-04T03:45:22.189Z,10.22
2023-05-04T03:47:49.248Z,10.15
2023-05-04T03:50:16.307Z,9.60
2023-05-04T03:52:43.327Z,10.18
2023-05-04T03:55:11.476Z,9.53
2023-05-04T03:57:38.787Z,9.74
2023-05-04T04:00:09.370Z,10.02
2023-05-04T04:02:42.168Z,9.65
2023-05-04T04:05:20.259Z,10.03
2023-05-04T04:07:49.816Z,10.08
2023-05-04T04:10:17.059Z,9.78
2023-05-04T04:12:44.164Z,9.28
2023-05-04T04:15:11.938Z,8.55
2023-05-04T04:17:38.985Z,9.89
2023-05-04T04:20:06.935Z,9.36
2023-05-04T04:22:34.198Z,8.65
2023-05-04T04:25:01.478Z,9.27
2023-05-04T04:27:28.365Z,8.75
2023-05-04T04:29:55.342Z,10.03
2023-05-04T04:32:22.857Z,10.01
2023-05-04T04:34:49.807Z,10.06
2023-05-04T04:37:16.840Z,10.17
2023-05-04T04:39:43.850Z,10.10
2023-05-04T04:42:11.829Z,9.79
2023-05-04T04:44:39.460Z,9.41
2023-05-04T04:47:06.896Z,9.88
2023-05-04T04:49:34.102Z,10.04
2023-05-04T04:52:02.076Z,9.51
2023-05-04T04:54:29.313Z,9.68
2023-05-04T04:56:56.357Z,9.89
2023-05-04T04:59:25.046Z,10.10
2023-05-04T05:01:53.272Z,10.05
2023-05-04T05:04:22.185Z,9.75
2023-05-04T05:06:49.895Z,9.89
2023-05-04T05:09:16.996Z,10.01
2023-05-04T05:11:44.045Z,10.40
2023-05-04T05:14:11.059Z,10.35
2023-05-04T05:16:38.155Z,10.05
2023-05-04T05:19:05.353Z,10.18
2023-05-04T05:21:32.501Z,9.68
2023-05-04T05:23:59.493Z,10.41
2023-05-04T05:26:26.489Z,10.49
2023-05-04T05:28:53.487Z,10.50
2023-05-04T05:31:20.516Z,10.18
2023-05-04T05:33:47.574Z,10.63
2023-05-04T05:36:14.758Z,10.07
2023-05-04T05:38:41.812Z,10.32
2023-05-04T05:41:09.983Z,10.69
2023-05-04T05:43:38.801Z,10.44
2023-05-04T05:46:06.964Z,10.46
2023-05-04T05:48:34.286Z,10.80
2023-05-04T05:51:01.296Z,10.43
2023-05-04T05:53:28.400Z,10.88
2023-05-04T05:55:55.467Z,10.79
2023-05-04T05:58:22.507Z,10.86
2023-05-04T06:00:49.466Z,10.24
2023-05-04T06:03:16.553Z,10.62
2023-05-04T06:05:43.717Z,10.96
2023-05-04T06:08:10.716Z,10.52
2023-05-04T06:10:37.769Z,10.58
2023-05-04T06:13:04.885Z,10.93
2023-05-04T06:15:32.034Z,10.49
2023-05-04T06:17:59.028Z,10.80
2023-05-04T06:20:26.335Z,11.15
2023-05-04T06:22:53.231Z,10.44
2023-05-04T06:25:20.181Z,11.02
2023-05-04T06:27:47.578Z,10.91
2023-05-04T06:30:15.284Z,11.15
2023-05-04T06:32:42.734Z,11.05
2023-05-04T06:35:10.708Z,11.19
2023-05-04T06:37:38.067Z,11.08
2023-05-04T06:40:30.220Z,11.26
2023-05-04T06:42:57.336Z,10.94
2023-05-04T06:45:24.406Z,11.20
2023-05-04T06:47:52.563Z,10.89
2023-05-04T06:50:19.574Z,10.32
2023-05-04T06:52:46.776Z,10.48
2023-05-04T06:55:14.092Z,11.34
2023-05-04T06:57:41.140Z,11.65
2023-05-04T07:00:09.131Z,11.14
2023-05-04T07:02:36.304Z,11.27
2023-05-04T07:05:04.080Z,11.76
2023-05-04T07:07:31.430Z,11.85
2023-05-04T07:09:58.695Z,11.70
2023-05-04T07:12:26.513Z,11.81
2023-05-04T07:14:53.469Z,11.79
2023-05-04T07:17:22.119Z,11.44
2023-05-04T07:19:52.472Z,11.85
2023-05-04T07:22:21.092Z,11.91
2023-05-04T07:24:48.080Z,11.59
2023-05-04T07:27:15.083Z,11.88
2023-05-04T07:29:42.132Z,11.64
2023-05-04T07:32:09.352Z,12.11
2023-05-04T07:34:44.992Z,11.32
2023-05-04T07:37:13.405Z,12.13
2023-05-04T07:39:40.479Z,12.16
2023-05-04T07:42:08.493Z,12.04
2023-05-04T07:44:35.512Z,12.09
2023-05-04T07:47:02.778Z,11.63
2023-05-04T07:49:29.784Z,12.08
2023-05-04T07:51:56.813Z,11.96
2023-05-04T07:54:23.898Z,11.86
2023-05-04T07:56:51.105Z,11.86
2023-05-04T07:59:22.008Z,12.04
2023-05-04T08:01:49.058Z,11.90
2023-05-04T08:04:16.104Z,12.37
2023-05-04T08:06:43.268Z,12.40
2023-05-04T08:09:10.526Z,12.23
2023-05-04T08:11:39.439Z,12.45
2023-05-04T08:14:06.802Z,11.89
2023-05-04T08:16:34.075Z,12.30
2023-05-04T08:19:01.630Z,11.80
2023-05-04T08:21:29.011Z,11.97
2023-05-04T08:23:56.203Z,11.84
2023-05-04T08:26:23.852Z,11.52
2023-05-04T08:28:51.175Z,11.77
2023-05-04T08:31:21.644Z,11.30
2023-05-04T08:33:48.661Z,11.76
2023-05-04T08:36:18.848Z,11.97
2023-05-04T08:38:45.831Z,11.76
2023-05-04T08:41:13.103Z,12.20
2023-05-04T08:43:40.163Z,11.61
2023-05-04T08:46:07.829Z,12.06
2023-05-04T08:48:35.425Z,11.80
2023-05-04T08:51:04.687Z,12.43
2023-05-04T08:53:35.644Z,12.23
2023-05-04T08:56:07.949Z,12.15
2023-05-04T08:58:38.319Z,11.90
2023-05-04T09:01:08.422Z,12.55
2023-05-04T09:03:36.895Z,12.20
2023-05-04T09:06:04.349Z,12.13
2023-05-04T09:08:32.742Z,12.19
2023-05-04T09:10:59.852Z,11.77
2023-05-04T09:13:27.495Z,12.61
2023-05-04T09:15:56.064Z,12.32
2023-05-04T09:18:23.520Z,12.59
2023-05-04T09:20:50.680Z,12.88
2023-05-04T09:23:18.413Z,12.64
2023-05-04T09:25:55.854Z,12.61
2023-05-04T09:28:35.884Z,12.31
2023-05-04T09:31:04.319Z,12.37
2023-05-04T09:33:32.246Z,12.82
2023-05-04T09:36:18.783Z,12.85
2023-05-04T09:38:46.268Z,12.80
2023-05-04T09:41:13.408Z,12.78
2023-05-04T09:43:41.901Z,12.39
2023-05-04T09:46:18.703Z,12.16
2023-05-04T09:48:57.032Z,11.97
2023-05-04T09:51:26.870Z,12.32
2023-05-04T09:53:54.152Z,12.75
2023-05-04T09:56:29.916Z,12.84
2023-05-04T09:58:58.868Z,12.35
2023-05-04T10:01:30.019Z,12.43
2023-05-04T10:03:57.254Z,12.51
2023-05-04T10:06:24.961Z,12.34
2023-05-04T10:08:52.214Z,12.45
2023-05-04T10:11:20.363Z,12.16
2023-05-04T10:13:48.901Z,12.69
2023-05-04T10:16:48.719Z,12.53
2023-05-04T10:19:24.904Z,12.90
2023-05-04T10:22:08.129Z,12.93
2023-05-04T10:24:59.893Z,12.97
2023-05-04T10:27:44.566Z,12.97
2023-05-04T10:30:13.360Z,12.84
2023-05-04T10:32:41.372Z,13.26
2023-05-04T10:35:10.234Z,13.29
2023-05-04T10:37:37.979Z,13.21
2023-05-04T10:40:07.866Z,13.10
2023-05-04T10:42:44.989Z,13.11
2023-05-04T10:45:13.206Z,13.58
2023-05-04T10:47:43.281Z,13.59
2023-05-04T10:50:16.181Z,13.31
2023-05-04T10:52:52.345Z,13.69
2023-05-04T10:55:21.122Z,13.35
2023-05-04T10:57:52.010Z,13.79
2023-05-04T11:00:19.413Z,13.80
2023-05-04T11:02:47.616Z,13.34
2023-05-04T11:05:19.673Z,13.43
2023-05-04T11:07:50.836Z,13.76
2023-05-04T11:10:26.119Z,13.91
2023-05-04T11:13:02.748Z,14.06
2023-05-04T11:15:32.979Z,12.95
2023-05-04T11:18:00.190Z,14.45
2023-05-04T11:20:28.050Z,13.75
2023-05-04T11:22:55.130Z,14.08
2023-05-04T11:25:29.087Z,13.85
2023-05-04T11:27:57.025Z,13.61
2023-05-04T11:30:32.731Z,14.81
2023-05-04T11:33:00.780Z,14.64
2023-05-04T11:35:28.067Z,14.38
2023-05-04T11:37:55.972Z,14.69
2023-05-04T11:40:24.552Z,14.47
2023-05-04T11:42:56.661Z,14.93
2023-05-04T11:45:28.304Z,14.65
2023-05-04T11:47:56.866Z,14.90
2023-05-04T11:50:25.472Z,15.09
2023-05-04T11:53:07.369Z,14.07
2023-05-04T11:55:35.082Z,15.19
2023-05-04T11:58:07.959Z,14.65
2023-05-04T12:00:50.099Z,14.37
2023-05-04T12:03:27.962Z,14.65
2023-05-04T12:06:03.622Z,14.90
2023-05-04T12:08:35.051Z,15.06
2023-05-04T12:11:20.656Z,14.85
2023-05-04T12:13:49.442Z,14.92
2023-05-04T12:16:20.703Z,14.35
2023-05-04T12:18:48.844Z,14.58
2023-05-04T12:21:21.636Z,14.49
2023-05-04T12:23:48.742Z,14.37
2023-05-04T12:26:18.940Z,14.10
2023-05-04T12:28:47.880Z,14.24
2023-05-04T12:31:15.294Z,13.81
2023-05-04T12:33:42.339Z,13.84
2023-05-04T12:36:10.481Z,13.68
2023-05-04T12:38:38.152Z,14.22
2023-05-04T12:41:06.420Z,14.21
2023-05-04T12:43:33.860Z,14.04
2023-05-04T12:46:00.984Z,13.63
2023-05-04T12:48:32.978Z,14.35
2023-05-04T12:51:01.273Z,14.42
2023-05-04T12:53:31.582Z,14.43
2023-05-04T12:56:02.454Z,14.22
2023-05-04T12:58:30.063Z,14.04
2023-05-04T13:00:58.134Z,14.46
2023-05-04T13:03:25.382Z,13.85
2023-05-04T13:05:54.655Z,14.47
2023-05-04T13:08:21.615Z,14.16
2023-05-04T13:10:48.660Z,14.05
2023-05-04T13:13:18.120Z,14.37
2023-05-04T13:15:45.514Z,14.14
2023-05-04T13:18:13.203Z,14.73
2023-05-04T13:20:41.012Z,14.62
2023-05-04T13:23:08.100Z,14.47
2023-05-04T13:25:35.343Z,14.70
2023-05-04T13:28:02.415Z,13.92
2023-05-04T13:30:29.877Z,14.30
2023-05-04T13:32:57.054Z,13.85
2023-05-04T13:35:24.359Z,13.57
2023-05-04T13:37:51.716Z,13.81
2023-05-04T13:40:18.695Z,13.53
2023-05-04T13:42:45.671Z,13.47
2023-05-04T13:45:13.309Z,13.80
2023-05-04T13:47:40.834Z,13.47
2023-05-04T13:50:08.559Z,13.67
2023-05-04T13:52:36.398Z,13.84
2023-05-04T13:55:04.052Z,13.78
2023-05-04T13:57:31.218Z,13.66
2023-05-04T14:00:07.039Z,13.37
2023-05-04T14:02:37.832Z,13.60
2023-05-04T14:05:05.426Z,13.82
2023-05-04T14:07:34.594Z,13.28
2023-05-04T14:10:01.553Z,13.66
2023-05-04T14:12:29.078Z,13.42
2023-05-04T14:14:57.466Z,13.60
2023-05-04T14:17:24.848Z,13.73
2023-05-04T14:19:51.928Z,13.25
2023-05-04T14:22:18.984Z,13.43
2023-05-04T14:24:45.989Z,13.83
2023-05-04T14:27:12.946Z,13.84
2023-05-04T14:29:39.962Z,14.14
2023-05-04T14:32:07.546Z,13.68
2023-05-04T14:34:34.728Z,13.90
2023-05-04T14:37:01.885Z,13.74
2023-05-04T14:39:28.997Z,13.81
2023-05-04T14:41:59.801Z,13.64
2023-05-04T14:44:28.871Z,14.22
2023-05-04T14:46:56.123Z,13.85
2023-05-04T14:49:35.684Z,13.80
2023-05-04T14:52:04.063Z,14.06
2023-05-04T14:54:31.087Z,14.09
2023-05-04T14:56:59.201Z,14.27
2023-05-04T14:59:26.366Z,14.26
2023-05-04T15:01:55.397Z,14.04
2023-05-04T15:04:23.402Z,13.79
2023-05-04T15:06:50.468Z,14.30
2023-05-04T15:09:17.468Z,14.31
2023-05-04T15:11:44.495Z,14.17
2023-05-04T15:14:11.505Z,13.86
2023-05-04T15:16:38.726Z,14.30
2023-05-04T15:19:06.666Z,14.38
2023-05-04T15:21:34.133Z,14.04
2023-05-04T15:24:01.156Z,13.21
2023-05-04T15:26:29.312Z,14.36
2023-05-04T15:28:56.402Z,14.03
2023-05-04T15:31:23.494Z,13.82
2023-05-04T15:33:50.473Z,14.15
2023-05-04T15:36:17.530Z,13.75
2023-05-04T15:38:44.534Z,13.35
2023-05-04T15:41:11.704Z,13.87
2023-05-04T15:43:38.797Z,13.82
2023-05-04T15:46:05.752Z,13.54
2023-05-04T15:48:32.872Z,13.90
2023-05-04T15:51:00.017Z,13.22
2023-05-04T15:53:27.679Z,13.63
2023-05-04T15:55:54.868Z,14.11
2023-05-04T15:58:21.792Z,13.35
2023-05-04T16:00:48.816Z,14.17
2023-05-04T16:03:16.101Z,13.96
2023-05-04T16:05:43.930Z,13.71
2023-05-04T16:08:11.625Z,13.98
2023-05-04T16:10:38.663Z,13.86
2023-05-04T16:13:05.920Z,14.07
2023-05-04T16:15:33.219Z,13.70
2023-05-04T16:18:00.500Z,13.68
2023-05-04T16:20:29.023Z,13.70
2023-05-04T16:22:56.131Z,14.12
2023-05-04T16:25:23.121Z,13.40
2023-05-04T16:27:50.165Z,14.24
2023-05-04T16:30:17.356Z,14.28
2023-05-04T16:32:44.947Z,14.29
2023-05-04T16:35:12.165Z,13.66
2023-05-04T16:37:39.698Z,14.09
2023-05-04T16:40:16.906Z,14.19
2023-05-04T16:42:44.270Z,14.17
2023-05-04T16:45:13.629Z,13.72
2023-05-04T16:47:44.290Z,13.73
2023-05-04T16:50:12.956Z,13.86
2023-05-04T16:52:40.175Z,14.16
2023-05-04T16:55:11.368Z,14.12
2023-05-04T16:57:39.154Z,13.54
2023-05-04T17:00:07.388Z,13.79
2023-05-04T17:02:35.591Z,14.06
2023-05-04T17:05:06.503Z,13.99
2023-05-04T17:07:34.324Z,14.10
2023-05-04T17:10:01.599Z,13.95
2023-05-04T17:12:29.130Z,14.06
2023-05-04T17:14:56.193Z,13.74
2023-05-04T17:17:23.290Z,13.81
2023-05-04T17:19:50.602Z,13.73
2023-05-04T17:22:17.662Z,13.75
2023-05-04T17:24:45.743Z,13.76
2023-05-04T17:27:13.176Z,13.55
2023-05-04T17:29:41.225Z,13.45
2023-05-04T17:32:08.489Z,13.28
2023-05-04T17:34:36.170Z,13.51
2023-05-04T17:37:03.320Z,13.82
2023-05-04T17:39:31.843Z,13.44
2023-05-04T17:41:59.212Z,13.77
2023-05-04T17:44:28.282Z,13.65
2023-05-04T17:46:55.286Z,13.63
2023-05-04T17:49:22.273Z,13.38
2023-05-04T17:51:49.587Z,13.42
2023-05-04T17:54:16.978Z,13.43
2023-05-04T17:56:44.180Z,13.30
2023-05-04T17:59:11.253Z,12.73
2023-05-04T18:01:38.458Z,13.06
2023-05-04T18:04:05.613Z,12.62
2023-05-04T18:06:32.986Z,12.98
2023-05-04T18:09:01.201Z,13.36
2023-05-04T18:11:28.422Z,13.24
2023-05-04T18:13:56.710Z,12.65
2023-05-04T18:16:24.839Z,13.25
2023-05-04T18:18:52.352Z,12.83
2023-05-04T18:21:19.483Z,12.39
2023-05-04T18:23:46.994Z,13.15
2023-05-04T18:26:23.375Z,12.46
2023-05-04T18:28:50.515Z,13.05
2023-05-04T18:31:17.814Z,12.84
2023-05-04T18:33:45.395Z,13.24
2023-05-04T18:36:12.474Z,13.14
2023-05-04T18:38:39.807Z,13.12
2023-05-04T18:41:07.296Z,13.26
2023-05-04T18:43:34.330Z,12.83
2023-05-04T18:46:10.378Z,13.07
2023-05-04T18:48:38.283Z,12.65
2023-05-04T18:51:05.450Z,12.65
2023-05-04T18:53:32.455Z,12.89
2023-05-04T18:56:10.476Z,12.86
2023-05-04T18:58:38.274Z,12.77
2023-05-04T19:01:09.009Z,13.12
2023-05-04T19:03:36.161Z,13.07
2023-05-04T19:06:03.307Z,12.81
2023-05-04T19:08:30.358Z,12.76
2023-05-04T19:11:00.619Z,13.00
2023-05-04T19:13:27.649Z,12.99
2023-05-04T19:15:54.688Z,12.73
2023-05-04T19:18:22.279Z,13.07
2023-05-04T19:20:49.478Z,12.99
2023-05-04T19:23:16.745Z,12.25
2023-05-04T19:25:45.116Z,12.29
2023-05-04T19:28:12.376Z,12.36
2023-05-04T19:30:40.308Z,12.47
2023-05-04T19:33:08.656Z,12.69
2023-05-04T19:35:36.063Z,12.24
2023-05-04T19:38:06.306Z,11.54
2023-05-04T19:40:34.388Z,12.48
2023-05-04T19:43:01.544Z,12.60
2023-05-04T19:45:28.628Z,12.45
2023-05-04T19:47:55.891Z,12.86
2023-05-04T19:50:22.985Z,12.51
2023-05-04T19:52:50.926Z,12.36
2023-05-04T19:55:18.036Z,12.08
2023-05-04T19:57:45.190Z,11.62
2023-05-04T20:00:13.369Z,12.84
2023-05-04T20:02:40.551Z,12.62
2023-05-04T20:05:17.620Z,12.06
2023-05-04T20:07:44.658Z,12.08
2023-05-04T20:10:12.500Z,12.23
2023-05-04T20:12:39.989Z,12.40
2023-05-04T20:15:07.479Z,12.18
2023-05-04T20:17:34.744Z,12.71
2023-05-04T20:20:12.149Z,12.08
2023-05-04T20:22:39.150Z,12.05
2023-05-04T20:25:06.362Z,12.59
2023-05-04T20:27:33.392Z,12.63
2023-05-04T20:30:00.448Z,12.65
2023-05-04T20:32:28.306Z,12.66
2023-05-04T20:34:55.333Z,11.30
2023-05-04T20:37:22.338Z,12.35
2023-05-04T20:39:52.630Z,12.16
2023-05-04T20:42:19.791Z,11.81
2023-05-04T20:44:46.920Z,12.53
2023-05-04T20:47:14.196Z,12.33
2023-05-04T20:49:41.235Z,12.10
2023-05-04T20:52:08.290Z,12.53
2023-05-04T20:54:35.269Z,11.99
2023-05-04T20:57:02.591Z,12.53
2023-05-04T20:59:29.654Z,12.53
2023-05-04T21:01:56.721Z,12.07
2023-05-04T21:04:29.819Z,12.49
2023-05-04T21:06:57.778Z,12.36
2023-05-04T21:09:24.834Z,12.51
2023-05-04T21:11:51.780Z,12.50
2023-05-04T21:14:18.821Z,12.56
2023-05-04T21:16:45.853Z,12.19
2023-05-04T21:19:12.831Z,12.16
2023-05-04T21:21:41.575Z,11.72
2023-05-04T21:24:13.305Z,12.45
2023-05-04T21:26:41.416Z,12.02
2023-05-04T21:29:15.009Z,12.49
2023-05-04T21:31:42.502Z,11.90
2023-05-04T21:34:09.629Z,11.71
2023-05-04T21:36:36.842Z,12.38
2023-05-04T21:39:06.319Z,11.86
2023-05-04T21:41:33.405Z,11.85
2023-05-04T21:44:00.471Z,11.11
2023-05-04T21:46:27.569Z,11.54
2023-05-04T21:48:54.643Z,11.14
2023-05-04T21:51:21.725Z,11.99
2023-05-04T21:53:48.694Z,12.29
2023-05-04T21:56:15.844Z,12.13
2023-05-04T21:58:43.497Z,11.71
2023-05-04T22:01:17.101Z,11.78
2023-05-04T22:03:44.798Z,12.03
2023-05-04T22:06:12.533Z,12.33
2023-05-04T22:08:39.924Z,12.28
2023-05-04T22:11:06.926Z,12.22
2023-05-04T22:13:33.870Z,11.78
2023-05-04T22:16:00.978Z,12.00
2023-05-04T22:18:27.960Z,12.21
2023-05-04T22:20:55.013Z,12.20
2023-05-04T22:23:21.934Z,11.58
2023-05-04T22:25:48.858Z,11.77
2023-05-04T22:28:16.284Z,11.90
2023-05-04T22:30:43.253Z,11.65
2023-05-04T22:33:10.402Z,11.65
2023-05-04T22:35:37.413Z,11.92
2023-05-04T22:38:05.181Z,12.14
2023-05-04T22:40:32.372Z,12.12
2023-05-04T22:42:59.518Z,11.26
2023-05-04T22:45:26.477Z,11.79
2023-05-04T22:47:53.617Z,11.81
2023-05-04T22:50:20.615Z,11.40
2023-05-04T22:52:50.763Z,10.73
2023-05-04T22:55:17.873Z,11.61
2023-05-04T22:57:44.769Z,11.90
2023-05-04T23:00:12.370Z,11.65
2023-05-04T23:02:39.782Z,11.27
2023-05-04T23:05:07.614Z,11.77
2023-05-04T23:07:34.656Z,10.57
2023-05-04T23:10:02.208Z,10.61
2023-05-04T23:12:29.414Z,11.14
2023-05-04T23:14:57.038Z,11.69
2023-05-04T23:17:24.070Z,11.10
2023-05-04T23:19:51.151Z,11.57
2023-05-04T23:22:18.139Z,11.50
2023-05-04T23:24:48.221Z,11.70
2023-05-04T23:27:15.103Z,11.82
2023-05-04T23:29:42.110Z,11.41
2023-05-04T23:32:09.171Z,11.81
2023-05-04T23:34:36.529Z,11.82
2023-05-04T23:37:03.599Z,11.50
2023-05-04T23:39:30.648Z,11.40
2023-05-04T23:41:57.648Z,11.51
2023-05-04T23:44:24.627Z,11.31
2023-05-04T23:46:51.678Z,11.24
2023-05-04T23:49:18.859Z,11.28
2023-05-04T23:51:45.884Z,11.77
2023-05-04T23:54:14.348Z,11.32
2023-05-04T23:56:41.495Z,11.18
2023-05-04T23:59:08.503Z,11.62
